createdAt,value
2019-04-23T00:01:07.557Z,13.50
2019-04-23T00:02:56.311Z,13.50
2019-04-23T00:04:45.218Z,13.50
2019-04-23T00:08:48.981Z,13.40
2019-04-23T00:10:53.662Z,13.30
2019-04-23T00:12:38.115Z,13.30
2019-04-23T00:14:27.316Z,13.30
2019-04-23T00:16:26.302Z,13.30
2019-04-23T00:18:22.287Z,13.30
2019-04-23T00:22:05.583Z,13.20
2019-04-23T00:24:11.425Z,13.10
2019-04-23T00:28:01.707Z,13.10
2019-04-23T00:30:27.021Z,13.10
2019-04-23T00:31:44.281Z,13.00
2019-04-23T00:33:46.440Z,12.90
2019-04-23T00:35:38.331Z,12.90
2019-04-23T00:39:34.568Z,12.90
2019-04-23T00:41:25.345Z,12.90
2019-04-23T00:45:12.400Z,12.90
2019-04-23T00:47:12.060Z,12.90
2019-04-23T00:49:06.089Z,12.90
2019-04-23T00:52:50.346Z,12.90
2019-04-23T00:54:50.492Z,12.80
2019-04-23T01:02:32.978Z,12.80
2019-04-23T01:04:27.433Z,12.80
2019-04-23T01:06:21.113Z,12.60
2019-04-23T01:08:12.410Z,12.60
2019-04-23T01:12:06.094Z,12.60
2019-04-23T01:13:54.043Z,12.50
2019-04-23T01:15:56.358Z,12.50
2019-04-23T01:17:58.251Z,12.40
2019-04-23T01:19:56.300Z,12.30
2019-04-23T01:21:28.829Z,12.30
2019-04-23T01:23:42.616Z,12.30
2019-04-23T01:25:47.420Z,12.40
2019-04-23T01:28:02.508Z,12.50
2019-04-23T01:29:58.481Z,12.50
2019-04-23T01:31:55.121Z,12.50
2019-04-23T01:33:51.466Z,12.60
2019-04-23T01:35:39.618Z,12.50
2019-04-23T01:37:36.800Z,12.50
2019-04-23T01:39:32.754Z,12.50
2019-04-23T01:41:29.000Z,12.40
2019-04-23T01:43:24.936Z,12.40
2019-04-23T01:45:21.559Z,12.30
2019-04-23T01:47:19.967Z,12.30
2019-04-23T01:49:10.643Z,12.40
2019-04-23T01:50:56.227Z,12.30
2019-04-23T01:53:04.769Z,12.30
2019-04-23T01:54:52.254Z,12.30
2019-04-23T01:56:38.553Z,12.20
2019-04-23T02:01:40.189Z,12.20
2019-04-23T02:02:41.190Z,12.20
2019-04-23T02:04:28.226Z,12.10
2019-04-23T02:06:20.465Z,12.10
2019-04-23T02:08:14.085Z,12.00
2019-04-23T02:12:04.422Z,12.00
2019-04-23T02:14:03.729Z,12.10
2019-04-23T02:15:53.795Z,12.10
2019-04-23T02:17:53.195Z,12.10
2019-04-23T02:19:46.178Z,12.10
2019-04-23T02:21:47.190Z,12.20
2019-04-23T02:23:39.703Z,12.10
2019-04-23T02:27:36.388Z,11.90
2019-04-23T02:29:36.554Z,12.00
2019-04-23T02:35:48.072Z,11.90
2019-04-23T02:37:15.307Z,11.90
2019-04-23T02:43:06.873Z,11.90
2019-04-23T02:44:45.584Z,11.90
2019-04-23T02:46:51.754Z,11.90
2019-04-23T02:50:39.685Z,11.80
2019-04-23T02:52:33.912Z,11.80
2019-04-23T02:56:45.322Z,11.80
2019-04-23T02:58:19.097Z,11.80
2019-04-23T03:02:14.401Z,11.90
2019-04-23T03:03:59.662Z,11.70
2019-04-23T03:05:49.314Z,11.70
2019-04-23T03:07:47.505Z,11.60
2019-04-23T03:09:45.236Z,11.50
2019-04-23T03:11:41.692Z,11.60
2019-04-23T03:13:37.618Z,11.60
2019-04-23T03:17:36.554Z,11.50
2019-04-23T03:19:38.166Z,11.50
2019-04-23T03:21:44.579Z,11.50
2019-04-23T03:23:42.516Z,11.50
2019-04-23T03:25:30.982Z,11.40
2019-04-23T03:27:29.225Z,11.40
2019-04-23T03:32:45.515Z,11.40
2019-04-23T03:38:51.702Z,11.20
2019-04-23T03:40:57.164Z,11.40
2019-04-23T03:50:32.199Z,11.10
2019-04-23T03:52:30.954Z,11.10
2019-04-23T03:54:26.004Z,11.10
2019-04-23T03:56:22.511Z,11.20
2019-04-23T04:00:12.611Z,11.00
2019-04-23T04:07:47.302Z,10.90
2019-04-23T04:09:46.329Z,10.90
2019-04-23T04:11:23.057Z,10.90
2019-04-23T04:23:17.592Z,11.10
2019-04-23T04:25:03.244Z,11.00
2019-04-23T04:26:59.474Z,11.00
2019-04-23T04:28:51.011Z,11.10
2019-04-23T04:30:43.517Z,11.00
2019-04-23T04:36:26.471Z,11.10
2019-04-23T04:38:38.675Z,11.10
2019-04-23T04:42:12.501Z,11.00
2019-04-23T04:44:30.953Z,10.90
2019-04-23T04:46:12.738Z,11.00
2019-04-23T04:49:56.189Z,10.90
2019-04-23T04:53:50.545Z,10.90
2019-04-23T05:03:23.970Z,10.90
2019-04-23T05:05:39.215Z,10.90
2019-04-23T05:07:32.078Z,10.80
2019-04-23T05:11:04.685Z,11.00
2019-04-23T05:12:59.989Z,10.90
2019-04-23T05:16:44.488Z,10.90
2019-04-23T05:18:39.980Z,10.90
2019-04-23T05:22:22.571Z,10.90
2019-04-23T05:24:21.862Z,11.00
2019-04-23T05:30:09.368Z,11.00
2019-04-23T05:31:58.909Z,11.10
2019-04-23T05:33:59.909Z,11.10
2019-04-23T05:36:06.070Z,11.20
2019-04-23T05:38:08.672Z,11.20
2019-04-23T05:43:28.908Z,11.50
2019-04-23T05:45:21.661Z,11.50
2019-04-23T05:47:23.211Z,11.70
2019-04-23T05:49:12.720Z,11.90
2019-04-23T05:51:11.004Z,11.90
2019-04-23T05:53:05.891Z,11.80
2019-04-23T05:55:02.703Z,11.90
2019-04-23T05:57:01.717Z,11.80
2019-04-23T05:58:55.817Z,11.60
2019-04-23T06:00:45.713Z,11.60
2019-04-23T06:02:45.358Z,11.70
2019-04-23T06:06:37.873Z,11.70
2019-04-23T06:08:41.014Z,11.80
2019-04-23T06:10:18.113Z,11.70
2019-04-23T06:14:17.356Z,11.70
2019-04-23T06:16:08.421Z,11.70
2019-04-23T06:18:01.532Z,11.60
2019-04-23T06:19:59.667Z,11.60
2019-04-23T06:22:00.428Z,11.80
2019-04-23T06:25:50.991Z,12.10
2019-04-23T06:27:32.404Z,12.20
2019-04-23T06:29:30.675Z,12.30
2019-04-23T06:31:26.564Z,12.40
2019-04-23T06:33:23.947Z,12.50
2019-04-23T06:35:19.217Z,12.50
2019-04-23T06:37:09.557Z,12.60
2019-04-23T06:39:06.490Z,12.70
2019-04-23T06:41:05.765Z,12.60
2019-04-23T06:42:58.246Z,12.80
2019-04-23T06:46:54.378Z,12.80
2019-04-23T06:48:43.383Z,12.80
2019-04-23T06:50:43.023Z,12.80
2019-04-23T06:52:30.103Z,12.90
2019-04-23T06:54:36.097Z,12.80
2019-04-23T06:56:26.916Z,12.80
2019-04-23T06:58:25.448Z,12.80
2019-04-23T07:00:13.263Z,13.00
2019-04-23T07:04:05.422Z,13.10
2019-04-23T07:08:02.778Z,13.20
2019-04-23T07:10:11.505Z,13.30
2019-04-23T07:11:49.293Z,13.40
2019-04-23T07:13:53.447Z,13.40
2019-04-23T07:15:48.360Z,13.40
2019-04-23T07:17:29.008Z,13.70
2019-04-23T07:21:27.962Z,13.80
2019-04-23T07:23:29.973Z,14.10
2019-04-23T07:27:13.173Z,14.30
2019-04-23T07:29:12.521Z,14.40
2019-04-23T07:31:07.509Z,14.50
2019-04-23T07:33:02.287Z,14.60
2019-04-23T07:35:02.449Z,14.80
2019-04-23T07:36:49.401Z,14.70
2019-04-23T07:38:54.644Z,14.80
2019-04-23T07:40:40.463Z,14.60
2019-04-23T07:42:59.972Z,14.70
2019-04-23T07:45:10.502Z,14.70
2019-04-23T07:47:19.369Z,14.90
2019-04-23T07:49:06.744Z,15.10
2019-04-23T07:50:55.177Z,15.10
2019-04-23T07:53:00.247Z,15.40
2019-04-23T07:54:52.665Z,15.60
2019-04-23T07:56:42.185Z,15.60
2019-04-23T07:58:44.867Z,15.70
2019-04-23T08:00:41.379Z,15.80
2019-04-23T08:02:29.960Z,15.60
2019-04-23T08:04:33.544Z,15.80
2019-04-23T08:06:17.817Z,15.90
2019-04-23T08:08:14.721Z,16.10
2019-04-23T08:10:08.124Z,16.30
2019-04-23T08:12:13.293Z,16.20
2019-04-23T08:14:02.080Z,16.60
2019-04-23T08:15:57.379Z,16.70
2019-04-23T08:17:42.683Z,16.80
2019-04-23T08:20:03.097Z,17.20
2019-04-23T08:21:36.335Z,17.40
2019-04-23T08:23:49.575Z,17.60
2019-04-23T08:25:56.428Z,17.80
2019-04-23T08:27:42.152Z,17.80
2019-04-23T08:29:30.428Z,17.70
2019-04-23T08:31:40.291Z,17.90
2019-04-23T08:33:36.157Z,18.00
2019-04-23T08:35:21.284Z,17.80
2019-04-23T08:37:27.342Z,18.20
2019-04-23T08:39:22.692Z,18.80
2019-04-23T08:41:22.906Z,18.90
2019-04-23T08:45:29.771Z,18.90
2019-04-23T08:47:37.825Z,18.80
2019-04-23T08:49:35.777Z,18.50
2019-04-23T08:51:38.498Z,18.60
2019-04-23T08:55:24.237Z,19.00
2019-04-23T08:57:15.579Z,19.40
2019-04-23T08:59:17.778Z,19.10
2019-04-23T09:01:05.893Z,19.50
2019-04-23T09:03:06.137Z,19.10
2019-04-23T09:05:02.587Z,19.20
2019-04-23T09:07:01.875Z,19.30
2019-04-23T09:08:42.093Z,19.20
2019-04-23T09:10:41.196Z,19.10
2019-04-23T09:12:35.951Z,19.50
2019-04-23T09:14:23.757Z,19.30
2019-04-23T09:16:31.282Z,19.90
2019-04-23T09:18:39.334Z,19.90
2019-04-23T09:20:27.708Z,20.10
2019-04-23T09:22:30.982Z,19.60
2019-04-23T09:24:22.835Z,19.20
2019-04-23T09:26:07.915Z,19.10
2019-04-23T09:28:09.139Z,19.30
2019-04-23T09:30:09.388Z,19.30
2019-04-23T09:34:05.104Z,19.80
2019-04-23T09:36:06.456Z,19.70
2019-04-23T09:38:21.885Z,19.80
2019-04-23T09:40:31.813Z,19.90
2019-04-23T09:42:30.007Z,20.10
2019-04-23T09:44:49.162Z,20.60
2019-04-23T09:46:27.440Z,21.10
2019-04-23T09:48:10.209Z,21.10
2019-04-23T09:50:15.353Z,21.50
2019-04-23T09:54:04.416Z,21.40
2019-04-23T09:55:49.902Z,21.80
2019-04-23T09:58:00.641Z,22.00
2019-04-23T10:01:41.031Z,22.70
2019-04-23T10:03:45.094Z,22.70
2019-04-23T10:05:39.135Z,23.10
2019-04-23T10:07:30.067Z,23.10
2019-04-23T10:09:16.676Z,23.20
2019-04-23T10:11:11.316Z,22.90
2019-04-23T10:13:06.123Z,23.10
2019-04-23T10:15:09.351Z,22.90
2019-04-23T10:16:55.762Z,22.90
2019-04-23T10:18:49.108Z,23.00
2019-04-23T10:20:44.495Z,23.00
2019-04-23T10:22:39.562Z,23.20
2019-04-23T10:24:34.976Z,22.90
2019-04-23T10:26:28.470Z,22.90
2019-04-23T10:28:40.237Z,23.00
2019-04-23T10:30:33.420Z,22.90
2019-04-23T10:32:27.343Z,22.60
2019-04-23T10:34:21.163Z,22.30
2019-04-23T10:36:19.132Z,22.40
2019-04-23T10:38:14.298Z,22.80
2019-04-23T10:40:11.767Z,23.10
2019-04-23T10:42:01.856Z,22.90
2019-04-23T10:43:58.675Z,22.50
2019-04-23T10:46:25.579Z,22.40
2019-04-23T10:48:38.582Z,22.20
2019-04-23T10:50:49.099Z,22.90
2019-04-23T10:52:30.648Z,23.20
2019-04-23T10:54:39.591Z,23.80
2019-04-23T10:56:36.127Z,24.20
2019-04-23T10:58:24.946Z,24.10
2019-04-23T11:00:22.581Z,23.90
2019-04-23T11:02:36.718Z,23.60
2019-04-23T11:04:20.897Z,23.20
2019-04-23T11:06:13.062Z,22.90
2019-04-23T11:07:53.621Z,23.30
2019-04-23T11:12:12.439Z,23.40
2019-04-23T11:14:10.990Z,23.20
2019-04-23T11:16:27.601Z,23.00
2019-04-23T11:23:46.683Z,23.30
2019-04-23T11:27:35.173Z,23.90
2019-04-23T11:29:34.277Z,23.90
2019-04-23T11:31:31.577Z,23.80
2019-04-23T11:33:20.154Z,23.90
2019-04-23T11:37:12.997Z,24.00
2019-04-23T11:39:08.372Z,23.90
2019-04-23T11:41:05.513Z,23.90
2019-04-23T11:43:03.905Z,24.20
2019-04-23T11:51:13.057Z,24.10
2019-04-23T11:52:51.732Z,23.90
2019-04-23T11:54:28.212Z,24.00
2019-04-23T11:56:35.336Z,23.90
2019-04-23T12:00:16.692Z,24.40
2019-04-23T12:02:05.346Z,24.10
2019-04-23T12:04:24.913Z,24.50
2019-04-23T12:06:46.021Z,24.60
2019-04-23T12:08:36.523Z,24.00
2019-04-23T12:10:29.126Z,23.60
2019-04-23T12:14:32.870Z,23.60
2019-04-23T12:16:20.562Z,24.00
2019-04-23T12:18:15.069Z,24.20
2019-04-23T12:20:07.989Z,24.60
2019-04-23T12:22:01.063Z,24.80
2019-04-23T12:24:01.175Z,24.90
2019-04-23T12:25:46.060Z,25.10
2019-04-23T12:27:33.416Z,25.20
2019-04-23T12:29:44.557Z,24.80
2019-04-23T12:31:47.100Z,24.70
2019-04-23T12:33:36.146Z,24.60
2019-04-23T12:39:32.980Z,24.30
2019-04-23T12:41:30.005Z,24.70
2019-04-23T12:43:23.648Z,24.90
2019-04-23T12:47:27.150Z,24.70
2019-04-23T12:49:21.329Z,24.10
2019-04-23T12:50:58.347Z,24.10
2019-04-23T12:55:10.200Z,24.00
2019-04-23T12:57:01.176Z,24.10
2019-04-23T12:58:36.292Z,23.80
2019-04-23T13:02:44.225Z,24.70
2019-04-23T13:04:45.506Z,25.60
2019-04-23T13:06:28.177Z,26.20
2019-04-23T13:10:20.963Z,26.80
2019-04-23T13:12:20.549Z,26.50
2019-04-23T13:14:21.082Z,26.30
2019-04-23T13:22:16.523Z,27.30
2019-04-23T13:23:51.259Z,28.00
2019-04-23T13:27:54.330Z,28.10
2019-04-23T13:29:56.622Z,28.50
2019-04-23T13:31:30.035Z,27.50
2019-04-23T13:37:31.642Z,26.00
2019-04-23T13:39:21.217Z,25.80
2019-04-23T13:41:17.349Z,25.60
2019-04-23T13:43:14.418Z,25.20
2019-04-23T13:45:13.938Z,24.90
2019-04-23T13:47:06.662Z,24.70
2019-04-23T13:48:47.154Z,24.90
2019-04-23T13:57:04.579Z,25.10
2019-04-23T13:58:26.522Z,25.50
2019-04-23T14:00:41.887Z,25.80
2019-04-23T14:02:24.885Z,26.00
2019-04-23T14:04:24.883Z,26.40
2019-04-23T14:08:13.626Z,26.40
2019-04-23T14:10:08.459Z,25.90
2019-04-23T14:11:45.923Z,25.70
2019-04-23T14:15:53.997Z,25.90
2019-04-23T14:17:59.612Z,26.00
2019-04-23T14:19:28.878Z,25.30
2019-04-23T14:23:59.441Z,25.10
2019-04-23T14:25:18.865Z,25.00
2019-04-23T14:27:20.159Z,25.60
2019-04-23T14:29:07.301Z,25.10
2019-04-23T14:33:03.465Z,24.40
2019-04-23T14:35:04.588Z,24.70
2019-04-23T14:36:55.569Z,24.70
2019-04-23T14:38:43.838Z,24.60
2019-04-23T14:40:43.133Z,24.30
2019-04-23T14:42:48.185Z,24.50
2019-04-23T14:44:56.668Z,24.00
2019-04-23T14:46:50.199Z,23.90
2019-04-23T14:48:38.389Z,23.70
2019-04-23T14:54:13.387Z,24.10
2019-04-23T14:58:11.727Z,23.10
2019-04-23T15:00:03.282Z,23.00
2019-04-23T15:01:51.443Z,23.10
2019-04-23T15:03:47.050Z,23.00
2019-04-23T15:06:00.135Z,22.90
2019-04-23T15:07:37.531Z,22.80
2019-04-23T15:09:37.426Z,22.90
2019-04-23T15:13:28.331Z,22.90
2019-04-23T15:15:26.926Z,22.80
2019-04-23T15:17:13.061Z,22.70
2019-04-23T15:19:28.516Z,22.70
2019-04-23T15:25:19.459Z,22.70
2019-04-23T15:28:30.261Z,23.30
2019-04-23T15:30:54.341Z,23.30
2019-04-23T15:34:57.484Z,23.00
2019-04-23T15:40:22.885Z,23.60
2019-04-23T15:42:29.522Z,23.60
2019-04-23T15:46:11.577Z,23.20
2019-04-23T15:48:04.751Z,23.60
2019-04-23T15:50:10.884Z,23.40
2019-04-23T15:53:52.809Z,23.40
2019-04-23T15:55:49.292Z,22.80
2019-04-23T15:58:09.232Z,22.70
2019-04-23T15:59:55.956Z,22.30
2019-04-23T16:01:40.561Z,22.10
2019-04-23T16:03:19.810Z,22.10
2019-04-23T16:05:12.421Z,21.90
2019-04-23T16:07:08.509Z,21.90
2019-04-23T16:09:26.038Z,21.90
2019-04-23T16:11:41.749Z,22.00
2019-04-23T16:13:33.935Z,21.80
2019-04-23T16:15:15.256Z,21.70
2019-04-23T16:17:13.780Z,21.60
2019-04-23T16:19:21.956Z,21.80
2019-04-23T16:22:58.014Z,21.60
2019-04-23T16:25:08.100Z,21.60
2019-04-23T16:27:04.410Z,21.30
2019-04-23T16:30:49.083Z,21.30
2019-04-23T16:33:02.466Z,21.40
2019-04-23T16:34:54.408Z,21.40
2019-04-23T16:36:43.896Z,21.10
2019-04-23T16:38:50.131Z,21.00
2019-04-23T16:42:29.648Z,21.00
2019-04-23T16:44:29.750Z,21.10
2019-04-23T16:46:21.395Z,21.10
2019-04-23T16:48:26.353Z,20.90
2019-04-23T16:50:13.011Z,20.90
2019-04-23T16:52:07.882Z,21.00
2019-04-23T16:54:01.409Z,21.00
2019-04-23T16:56:05.286Z,20.60
2019-04-23T16:57:54.550Z,20.50
2019-04-23T17:00:02.847Z,20.40
2019-04-23T17:01:48.937Z,20.30
2019-04-23T17:05:31.515Z,20.30
2019-04-23T17:07:22.193Z,20.30
2019-04-23T17:09:37.106Z,20.30
2019-04-23T17:15:07.534Z,20.20
2019-04-23T17:16:53.642Z,20.20
2019-04-23T17:19:09.302Z,20.20
2019-04-23T17:20:51.998Z,20.00
2019-04-23T17:22:53.169Z,20.00
2019-04-23T17:24:43.641Z,19.90
2019-04-23T17:26:38.939Z,19.90
2019-04-23T17:28:28.225Z,20.00
2019-04-23T17:30:28.274Z,19.90
2019-04-23T17:32:15.167Z,20.00
2019-04-23T17:34:23.722Z,19.80
2019-04-23T17:38:23.326Z,19.60
2019-04-23T17:40:12.205Z,19.50
2019-04-23T17:44:21.927Z,19.60
2019-04-23T17:46:00.994Z,19.40
2019-04-23T17:48:13.335Z,19.40
2019-04-23T17:50:10.756Z,19.30
2019-04-23T17:51:56.057Z,19.20
2019-04-23T17:53:54.508Z,19.20
2019-04-23T17:56:06.305Z,19.20
2019-04-23T17:57:45.932Z,19.20
2019-04-23T18:00:05.374Z,19.10
2019-04-23T18:01:55.231Z,19.00
2019-04-23T18:03:49.838Z,18.90
2019-04-23T18:05:33.140Z,18.80
2019-04-23T18:07:43.762Z,18.80
2019-04-23T18:09:32.743Z,18.80
2019-04-23T18:15:09.560Z,18.50
2019-04-23T18:21:06.025Z,18.40
2019-04-23T18:24:50.265Z,18.30
2019-04-23T18:29:04.536Z,18.20
2019-04-23T18:33:18.315Z,18.10
2019-04-23T18:35:08.786Z,18.10
2019-04-23T18:36:43.063Z,17.90
2019-04-23T18:38:39.778Z,18.00
2019-04-23T18:40:52.415Z,17.80
2019-04-23T18:42:45.094Z,17.70
2019-04-23T18:44:36.338Z,17.70
2019-04-23T18:46:35.484Z,17.70
2019-04-23T18:50:32.711Z,17.50
2019-04-23T18:52:27.666Z,17.40
2019-04-23T18:54:19.931Z,17.40
2019-04-23T18:58:08.370Z,17.30
2019-04-23T19:00:05.662Z,17.10
2019-04-23T19:02:20.630Z,17.00
2019-04-23T19:04:11.016Z,16.90
2019-04-23T19:10:31.743Z,16.50
2019-04-23T19:14:35.263Z,16.50
2019-04-23T19:16:25.302Z,16.40
2019-04-23T19:18:19.168Z,16.40
2019-04-23T19:20:26.424Z,16.40
2019-04-23T19:24:03.355Z,16.40
2019-04-23T19:26:09.579Z,16.40
2019-04-23T19:28:30.795Z,16.40
2019-04-23T19:29:58.414Z,16.40
2019-04-23T19:34:08.417Z,16.50
2019-04-23T19:37:55.934Z,16.50
2019-04-23T19:41:57.185Z,16.40
2019-04-23T19:43:41.531Z,16.50
2019-04-23T19:45:51.826Z,16.50
2019-04-23T19:47:45.857Z,16.30
2019-04-23T19:51:25.143Z,16.10
2019-04-23T19:53:33.761Z,16.00
2019-04-23T19:55:19.430Z,15.90
2019-04-23T19:57:12.667Z,15.90
2019-04-23T19:59:25.604Z,15.80
2019-04-23T20:01:23.450Z,15.90
2019-04-23T20:03:28.237Z,15.90
2019-04-23T20:05:08.753Z,15.90
2019-04-23T20:09:16.231Z,15.90
2019-04-23T20:10:54.630Z,15.90
2019-04-23T20:12:49.594Z,15.80
2019-04-23T20:14:52.320Z,15.80
2019-04-23T20:17:16.475Z,15.80
2019-04-23T20:20:43.868Z,15.70
2019-04-23T20:22:41.635Z,15.80
2019-04-23T20:24:41.828Z,15.70
2019-04-23T20:36:22.003Z,15.60
2019-04-23T20:38:25.551Z,15.50
2019-04-23T20:40:04.414Z,15.50
2019-04-23T20:42:10.735Z,15.40
2019-04-23T20:44:11.894Z,15.40
2019-04-23T20:46:10.828Z,15.40
2019-04-23T20:51:47.907Z,15.30
2019-04-23T20:53:31.066Z,15.30
2019-04-23T20:55:29.345Z,15.30
2019-04-23T20:59:25.077Z,15.30
2019-04-23T21:01:33.957Z,15.40
2019-04-23T21:05:19.185Z,15.40
2019-04-23T21:07:15.949Z,15.20
2019-04-23T21:11:01.452Z,15.10
2019-04-23T21:15:05.680Z,15.00
2019-04-23T21:16:52.401Z,15.00
2019-04-23T21:22:30.585Z,15.00
2019-04-23T21:24:30.560Z,15.00
2019-04-23T21:26:17.515Z,14.90
2019-04-23T21:30:50.721Z,14.80
2019-04-23T21:32:35.895Z,14.70
2019-04-23T21:34:45.303Z,14.70
2019-04-23T21:38:28.779Z,14.70
2019-04-23T21:42:07.517Z,14.80
2019-04-23T21:46:15.149Z,14.70
2019-04-23T21:51:50.380Z,14.70
2019-04-23T21:53:53.122Z,14.60
2019-04-23T21:55:53.791Z,14.60
2019-04-23T21:57:44.295Z,14.70
2019-04-23T21:59:28.643Z,14.60
2019-04-23T22:01:32.058Z,14.50
2019-04-23T22:03:31.872Z,14.50
2019-04-23T22:05:24.338Z,14.50
2019-04-23T22:07:11.561Z,14.60
2019-04-23T22:11:24.983Z,14.70
2019-04-23T22:18:57.228Z,14.90
2019-04-23T22:20:44.055Z,14.90
2019-04-23T22:22:41.992Z,15.00
2019-04-23T22:24:19.421Z,15.00
2019-04-23T22:26:28.541Z,15.10
2019-04-23T22:28:19.705Z,15.30
2019-04-23T22:30:11.432Z,15.40
2019-04-23T22:32:25.502Z,15.40
2019-04-23T22:36:04.526Z,15.40
2019-04-23T22:38:01.005Z,15.60
2019-04-23T22:41:54.144Z,15.60
2019-04-23T22:43:43.030Z,15.60
2019-04-23T22:45:40.203Z,15.60
2019-04-23T22:47:33.727Z,15.60
2019-04-23T22:49:28.633Z,15.60
2019-04-23T22:51:29.372Z,15.60
2019-04-23T22:53:31.462Z,15.70
2019-04-23T22:57:03.257Z,15.60
2019-04-23T22:59:11.907Z,15.60
2019-04-23T23:01:02.577Z,15.50
2019-04-23T23:03:06.547Z,15.50
2019-04-23T23:05:04.114Z,15.60
2019-04-23T23:06:57.209Z,15.50
2019-04-23T23:08:56.177Z,15.60
2019-04-23T23:10:42.574Z,15.50
2019-04-23T23:12:44.900Z,15.60
2019-04-23T23:14:30.970Z,15.50
2019-04-23T23:16:21.380Z,15.50
2019-04-23T23:22:16.869Z,15.40
2019-04-23T23:23:59.633Z,15.50
2019-04-23T23:25:58.432Z,15.40
2019-04-23T23:27:57.749Z,15.50
2019-04-23T23:31:46.632Z,15.50
2019-04-23T23:35:29.517Z,15.40
2019-04-23T23:37:24.012Z,15.40
2019-04-23T23:39:22.736Z,15.40
2019-04-23T23:41:20.711Z,15.30
2019-04-23T23:43:23.067Z,15.20
2019-04-23T23:45:10.234Z,15.20
2019-04-23T23:47:03.050Z,15.20
2019-04-23T23:51:00.542Z,15.20
2019-04-23T23:53:02.768Z,15.20
2019-04-23T23:54:35.549Z,15.20
2019-04-23T23:56:47.799Z,15.30
2019-04-23T23:58:43.360Z,15.20
